Startpagina
METAR-TAF:

METAR-TAF

Vliegvelden :

Luchthaven Mitiga Internationaal

Tripoli, Libië

breedte: 32-54N, lengte: 13-17E, hoogte: 11 m

Actueel weer

Dit bericht is 1 uur en het 19 minuten geleden gemaakt, om 11:50 UTC
Wind 10 kt uit het oosten
Temperatuur 23°C
Vochtigheid 69%
Druk 1010 hPa
Zicht: 7000 m
Weinig wolken op 2500 ft
Gebroken wolken op 8000 ft

METAR: HLLM 211150Z 08010KT 7000 FEW025 BKN080 23/17 Q1010

Tijdstip: 15:09 (13:09 UTC)

Verwachting

Dit bericht is 2 uur en het 9 minuten geleden gemaakt, om 11:00 UTC
Verwachting geldig van 21 om 12 UTC tot 22 om 12 UTC
Wind 15 kt uit het oostnoordoosten
Zicht: 8000 m
Verspreide wolken op 2500 ft
Gebroken wolken op 8000 ft
Wijzigt naar
van 22 om 00 UTC tot 22 om 02 UTC
Wind 2 kt uit variabele richting
Kans 30% :
Tijdelijke
van 22 om 02 UTC tot 22 om 06 UTC
Zicht: 4000 m
nevel

TAF: HLLM 211100Z 2112/2212 06015KT 8000 SCT025 BKN080 BECMG 2200/2202 VRB02KT PROB30 TEMPO 2202/2206 4000 BR NSC

Waarnemingen en weersverwachtingen van meer dan 4000 vliegvelden (METAR en TAF).

De beschikbare stations zijn de gele en rode punten op de kaart.

Ga met uw muis naar het station om de naam te zien.

Klik dan om waarnemingen en weersverwachtingen te zien.

kaart wijzigen: klik op de groene knoppen met een zwart kruis om in te zoomen, op de groene knop met een streepje om uit te zoomen of op de groene pijlen voor aangrenzende kaarten.


METAR-TAF: